sensor_id;sensor_type;location;lat;lon;timestamp;P1;durP1;ratioP1;P2;durP2;ratioP2
72720;SDS011;60835;50.974;10.322;2023-05-07T00:01:31;55.97;;;31.60;;
72720;SDS011;60835;50.974;10.322;2023-05-07T00:03:57;55.22;;;29.80;;
72720;SDS011;60835;50.974;10.322;2023-05-07T00:06:24;52.88;;;30.23;;
72720;SDS011;60835;50.974;10.322;2023-05-07T00:08:52;54.05;;;29.38;;
72720;SDS011;60835;50.974;10.322;2023-05-07T00:11:18;52.25;;;28.88;;
72720;SDS011;60835;50.974;10.322;2023-05-07T00:13:47;48.03;;;27.80;;
72720;SDS011;60835;50.974;10.322;2023-05-07T00:16:14;50.55;;;28.85;;
72720;SDS011;60835;50.974;10.322;2023-05-07T00:18:41;51.90;;;28.92;;
72720;SDS011;60835;50.974;10.322;2023-05-07T00:21:07;52.95;;;29.02;;
72720;SDS011;60835;50.974;10.322;2023-05-07T00:23:34;50.88;;;28.60;;
72720;SDS011;60835;50.974;10.322;2023-05-07T00:26:01;57.88;;;31.02;;
72720;SDS011;60835;50.974;10.322;2023-05-07T00:28:27;57.80;;;30.88;;
72720;SDS011;60835;50.974;10.322;2023-05-07T00:30:54;52.28;;;28.30;;
72720;SDS011;60835;50.974;10.322;2023-05-07T00:33:21;52.50;;;29.63;;
72720;SDS011;60835;50.974;10.322;2023-05-07T00:35:48;57.30;;;29.48;;
72720;SDS011;60835;50.974;10.322;2023-05-07T00:38:14;58.88;;;29.10;;
72720;SDS011;60835;50.974;10.322;2023-05-07T00:40:41;54.17;;;29.52;;
72720;SDS011;60835;50.974;10.322;2023-05-07T00:43:08;60.83;;;29.73;;
72720;SDS011;60835;50.974;10.322;2023-05-07T00:45:35;55.30;;;30.02;;
72720;SDS011;60835;50.974;10.322;2023-05-07T00:48:02;55.45;;;29.48;;
72720;SDS011;60835;50.974;10.322;2023-05-07T00:50:29;49.58;;;26.95;;
72720;SDS011;60835;50.974;10.322;2023-05-07T00:52:56;51.20;;;28.88;;
72720;SDS011;60835;50.974;10.322;2023-05-07T00:55:23;55.58;;;28.83;;
72720;SDS011;60835;50.974;10.322;2023-05-07T00:57:50;55.95;;;30.35;;
72720;SDS011;60835;50.974;10.322;2023-05-07T01:00:18;55.33;;;30.73;;
72720;SDS011;60835;50.974;10.322;2023-05-07T01:02:45;46.63;;;26.38;;
72720;SDS011;60835;50.974;10.322;2023-05-07T01:05:14;52.55;;;27.92;;
72720;SDS011;60835;50.974;10.322;2023-05-07T01:07:44;56.97;;;27.85;;
72720;SDS011;60835;50.974;10.322;2023-05-07T01:10:11;51.75;;;28.45;;
72720;SDS011;60835;50.974;10.322;2023-05-07T01:12:39;49.75;;;27.58;;
72720;SDS011;60835;50.974;10.322;2023-05-07T01:15:07;53.35;;;27.48;;
72720;SDS011;60835;50.974;10.322;2023-05-07T01:17:36;48.67;;;26.63;;
72720;SDS011;60835;50.974;10.322;2023-05-07T01:20:04;54.38;;;27.67;;
72720;SDS011;60835;50.974;10.322;2023-05-07T01:22:34;49.20;;;27.50;;
72720;SDS011;60835;50.974;10.322;2023-05-07T01:25:03;46.45;;;26.88;;
72720;SDS011;60835;50.974;10.322;2023-05-07T01:27:31;52.60;;;29.08;;
72720;SDS011;60835;50.974;10.322;2023-05-07T01:29:59;49.33;;;27.65;;
72720;SDS011;60835;50.974;10.322;2023-05-07T01:32:38;50.53;;;27.48;;
72720;SDS011;60835;50.974;10.322;2023-05-07T01:35:11;56.20;;;28.27;;
72720;SDS011;60835;50.974;10.322;2023-05-07T01:37:39;52.05;;;27.15;;
72720;SDS011;60835;50.974;10.322;2023-05-07T01:40:07;44.28;;;24.52;;
72720;SDS011;60835;50.974;10.322;2023-05-07T01:42:35;50.75;;;25.10;;
72720;SDS011;60835;50.974;10.322;2023-05-07T01:45:02;51.53;;;26.85;;
72720;SDS011;60835;50.974;10.322;2023-05-07T01:47:29;45.97;;;25.17;;
72720;SDS011;60835;50.974;10.322;2023-05-07T01:49:57;47.42;;;26.50;;
72720;SDS011;60835;50.974;10.322;2023-05-07T01:52:24;49.92;;;27.50;;
72720;SDS011;60835;50.974;10.322;2023-05-07T01:54:51;49.33;;;26.83;;
72720;SDS011;60835;50.974;10.322;2023-05-07T01:57:18;45.03;;;25.77;;
72720;SDS011;60835;50.974;10.322;2023-05-07T01:59:45;45.88;;;25.88;;
72720;SDS011;60835;50.974;10.322;2023-05-07T02:02:11;47.72;;;25.80;;
72720;SDS011;60835;50.974;10.322;2023-05-07T02:04:38;47.47;;;25.00;;
72720;SDS011;60835;50.974;10.322;2023-05-07T02:07:05;45.05;;;24.73;;
72720;SDS011;60835;50.974;10.322;2023-05-07T02:09:32;49.70;;;25.75;;
72720;SDS011;60835;50.974;10.322;2023-05-07T02:11:58;49.92;;;26.23;;
72720;SDS011;60835;50.974;10.322;2023-05-07T02:14:26;49.70;;;25.17;;
72720;SDS011;60835;50.974;10.322;2023-05-07T02:16:52;50.13;;;25.92;;
72720;SDS011;60835;50.974;10.322;2023-05-07T02:19:19;48.10;;;25.92;;
72720;SDS011;60835;50.974;10.322;2023-05-07T02:21:47;49.40;;;25.55;;
72720;SDS011;60835;50.974;10.322;2023-05-07T02:24:14;45.33;;;24.17;;
72720;SDS011;60835;50.974;10.322;2023-05-07T02:26:41;46.58;;;24.88;;
72720;SDS011;60835;50.974;10.322;2023-05-07T02:29:08;48.33;;;26.55;;
72720;SDS011;60835;50.974;10.322;2023-05-07T02:31:35;49.22;;;26.27;;
72720;SDS011;60835;50.974;10.322;2023-05-07T02:34:01;51.10;;;25.95;;
72720;SDS011;60835;50.974;10.322;2023-05-07T02:36:28;52.10;;;25.50;;
72720;SDS011;60835;50.974;10.322;2023-05-07T02:38:55;45.65;;;24.38;;
72720;SDS011;60835;50.974;10.322;2023-05-07T02:41:21;48.45;;;25.73;;
72720;SDS011;60835;50.974;10.322;2023-05-07T02:43:48;49.10;;;25.02;;
72720;SDS011;60835;50.974;10.322;2023-05-07T02:46:15;48.63;;;25.38;;
72720;SDS011;60835;50.974;10.322;2023-05-07T02:48:42;48.17;;;25.73;;
72720;SDS011;60835;50.974;10.322;2023-05-07T02:51:09;48.55;;;25.25;;
72720;SDS011;60835;50.974;10.322;2023-05-07T02:53:36;51.15;;;25.35;;
72720;SDS011;60835;50.974;10.322;2023-05-07T02:56:03;53.60;;;25.67;;
72720;SDS011;60835;50.974;10.322;2023-05-07T02:58:30;50.40;;;25.35;;
72720;SDS011;60835;50.974;10.322;2023-05-07T03:00:56;51.10;;;25.33;;
72720;SDS011;60835;50.974;10.322;2023-05-07T03:03:23;49.63;;;24.60;;
72720;SDS011;60835;50.974;10.322;2023-05-07T03:05:50;51.17;;;24.45;;
72720;SDS011;60835;50.974;10.322;2023-05-07T03:08:17;54.15;;;25.30;;
72720;SDS011;60835;50.974;10.322;2023-05-07T03:10:43;52.47;;;26.73;;
72720;SDS011;60835;50.974;10.322;2023-05-07T03:13:10;57.15;;;26.67;;
72720;SDS011;60835;50.974;10.322;2023-05-07T03:15:37;55.45;;;26.88;;
72720;SDS011;60835;50.974;10.322;2023-05-07T03:18:03;54.40;;;24.88;;
72720;SDS011;60835;50.974;10.322;2023-05-07T03:20:30;46.97;;;23.38;;
72720;SDS011;60835;50.974;10.322;2023-05-07T03:22:57;53.80;;;25.10;;
72720;SDS011;60835;50.974;10.322;2023-05-07T03:25:23;55.80;;;25.70;;
72720;SDS011;60835;50.974;10.322;2023-05-07T03:27:50;53.90;;;24.48;;
72720;SDS011;60835;50.974;10.322;2023-05-07T03:30:17;58.92;;;25.30;;
72720;SDS011;60835;50.974;10.322;2023-05-07T03:32:44;53.50;;;24.60;;
72720;SDS011;60835;50.974;10.322;2023-05-07T03:35:11;53.33;;;26.00;;
72720;SDS011;60835;50.974;10.322;2023-05-07T03:37:38;59.35;;;26.83;;
72720;SDS011;60835;50.974;10.322;2023-05-07T03:40:05;58.70;;;25.35;;
72720;SDS011;60835;50.974;10.322;2023-05-07T03:42:32;56.60;;;25.90;;
72720;SDS011;60835;50.974;10.322;2023-05-07T03:44:59;57.65;;;27.55;;
72720;SDS011;60835;50.974;10.322;2023-05-07T03:47:26;57.58;;;24.73;;
72720;SDS011;60835;50.974;10.322;2023-05-07T03:49:52;51.60;;;24.48;;
72720;SDS011;60835;50.974;10.322;2023-05-07T03:52:21;59.22;;;25.38;;
72720;SDS011;60835;50.974;10.322;2023-05-07T03:54:52;53.92;;;23.83;;
72720;SDS011;60835;50.974;10.322;2023-05-07T03:57:19;56.05;;;24.88;;
72720;SDS011;60835;50.974;10.322;2023-05-07T03:59:46;53.58;;;24.13;;
72720;SDS011;60835;50.974;10.322;2023-05-07T04:02:13;48.95;;;23.02;;
72720;SDS011;60835;50.974;10.322;2023-05-07T04:04:40;52.67;;;23.70;;
72720;SDS011;60835;50.974;10.322;2023-05-07T04:07:06;52.35;;;23.70;;
72720;SDS011;60835;50.974;10.322;2023-05-07T04:09:33;52.85;;;24.40;;
72720;SDS011;60835;50.974;10.322;2023-05-07T04:12:02;50.13;;;23.52;;
72720;SDS011;60835;50.974;10.322;2023-05-07T04:14:31;47.45;;;23.63;;
72720;SDS011;60835;50.974;10.322;2023-05-07T04:16:58;47.67;;;22.13;;
72720;SDS011;60835;50.974;10.322;2023-05-07T04:19:25;50.08;;;23.80;;
72720;SDS011;60835;50.974;10.322;2023-05-07T04:21:52;49.95;;;21.75;;
72720;SDS011;60835;50.974;10.322;2023-05-07T04:24:18;46.83;;;23.42;;
72720;SDS011;60835;50.974;10.322;2023-05-07T04:26:45;49.90;;;23.70;;
72720;SDS011;60835;50.974;10.322;2023-05-07T04:29:12;48.83;;;22.00;;
72720;SDS011;60835;50.974;10.322;2023-05-07T04:31:38;49.00;;;22.90;;
72720;SDS011;60835;50.974;10.322;2023-05-07T04:34:05;48.15;;;22.05;;
72720;SDS011;60835;50.974;10.322;2023-05-07T04:36:32;51.92;;;24.20;;
72720;SDS011;60835;50.974;10.322;2023-05-07T04:39:00;55.85;;;24.02;;
72720;SDS011;60835;50.974;10.322;2023-05-07T04:41:26;50.95;;;24.20;;
72720;SDS011;60835;50.974;10.322;2023-05-07T04:43:53;51.78;;;23.27;;
72720;SDS011;60835;50.974;10.322;2023-05-07T04:46:20;53.78;;;24.52;;
72720;SDS011;60835;50.974;10.322;2023-05-07T04:48:47;53.90;;;23.60;;
72720;SDS011;60835;50.974;10.322;2023-05-07T04:51:14;51.70;;;22.70;;
72720;SDS011;60835;50.974;10.322;2023-05-07T04:53:42;50.65;;;22.60;;
72720;SDS011;60835;50.974;10.322;2023-05-07T04:56:09;49.92;;;24.05;;
72720;SDS011;60835;50.974;10.322;2023-05-07T04:58:36;54.25;;;24.10;;
72720;SDS011;60835;50.974;10.322;2023-05-07T05:01:02;53.92;;;23.98;;
72720;SDS011;60835;50.974;10.322;2023-05-07T05:03:29;58.88;;;24.30;;
72720;SDS011;60835;50.974;10.322;2023-05-07T05:05:56;53.83;;;23.98;;
72720;SDS011;60835;50.974;10.322;2023-05-07T05:08:25;55.60;;;23.95;;
72720;SDS011;60835;50.974;10.322;2023-05-07T05:10:52;53.67;;;23.98;;
72720;SDS011;60835;50.974;10.322;2023-05-07T05:13:18;59.08;;;24.83;;
72720;SDS011;60835;50.974;10.322;2023-05-07T05:15:45;52.38;;;22.90;;
72720;SDS011;60835;50.974;10.322;2023-05-07T05:18:12;55.97;;;26.00;;
72720;SDS011;60835;50.974;10.322;2023-05-07T05:20:40;58.15;;;25.15;;
72720;SDS011;60835;50.974;10.322;2023-05-07T05:23:07;56.67;;;24.92;;
72720;SDS011;60835;50.974;10.322;2023-05-07T05:25:34;59.50;;;26.08;;
72720;SDS011;60835;50.974;10.322;2023-05-07T05:28:00;62.47;;;26.20;;
72720;SDS011;60835;50.974;10.322;2023-05-07T05:30:27;60.42;;;26.10;;
72720;SDS011;60835;50.974;10.322;2023-05-07T05:32:54;56.08;;;25.77;;
72720;SDS011;60835;50.974;10.322;2023-05-07T05:35:20;57.95;;;26.50;;
72720;SDS011;60835;50.974;10.322;2023-05-07T05:37:47;60.50;;;27.30;;
72720;SDS011;60835;50.974;10.322;2023-05-07T05:40:14;58.47;;;27.05;;
72720;SDS011;60835;50.974;10.322;2023-05-07T05:42:41;64.55;;;27.55;;
72720;SDS011;60835;50.974;10.322;2023-05-07T05:45:10;52.78;;;25.05;;
72720;SDS011;60835;50.974;10.322;2023-05-07T05:47:37;63.47;;;26.35;;
72720;SDS011;60835;50.974;10.322;2023-05-07T05:50:05;64.72;;;24.67;;
72720;SDS011;60835;50.974;10.322;2023-05-07T05:52:33;59.22;;;26.30;;
72720;SDS011;60835;50.974;10.322;2023-05-07T05:54:59;56.92;;;25.20;;
72720;SDS011;60835;50.974;10.322;2023-05-07T05:57:27;55.10;;;25.95;;
72720;SDS011;60835;50.974;10.322;2023-05-07T05:59:54;52.15;;;25.75;;
72720;SDS011;60835;50.974;10.322;2023-05-07T06:02:21;51.65;;;24.90;;
72720;SDS011;60835;50.974;10.322;2023-05-07T06:04:48;61.45;;;26.58;;
72720;SDS011;60835;50.974;10.322;2023-05-07T06:07:14;53.45;;;25.17;;
72720;SDS011;60835;50.974;10.322;2023-05-07T06:09:41;46.75;;;23.30;;
72720;SDS011;60835;50.974;10.322;2023-05-07T06:12:08;49.65;;;23.63;;
72720;SDS011;60835;50.974;10.322;2023-05-07T06:14:34;55.25;;;25.67;;
72720;SDS011;60835;50.974;10.322;2023-05-07T06:17:01;52.03;;;24.33;;
72720;SDS011;60835;50.974;10.322;2023-05-07T06:19:27;48.90;;;22.30;;
72720;SDS011;60835;50.974;10.322;2023-05-07T06:21:54;45.25;;;22.00;;
72720;SDS011;60835;50.974;10.322;2023-05-07T06:24:26;49.83;;;23.33;;
72720;SDS011;60835;50.974;10.322;2023-05-07T06:26:53;46.13;;;21.83;;
72720;SDS011;60835;50.974;10.322;2023-05-07T06:29:19;43.45;;;20.63;;
72720;SDS011;60835;50.974;10.322;2023-05-07T06:31:46;42.35;;;20.80;;
72720;SDS011;60835;50.974;10.322;2023-05-07T06:34:12;44.45;;;20.60;;
72720;SDS011;60835;50.974;10.322;2023-05-07T06:36:42;41.97;;;21.75;;
72720;SDS011;60835;50.974;10.322;2023-05-07T06:39:09;39.95;;;20.08;;
72720;SDS011;60835;50.974;10.322;2023-05-07T06:41:35;38.85;;;19.48;;
72720;SDS011;60835;50.974;10.322;2023-05-07T06:44:02;32.38;;;16.85;;
72720;SDS011;60835;50.974;10.322;2023-05-07T06:46:29;31.30;;;17.92;;
72720;SDS011;60835;50.974;10.322;2023-05-07T06:48:56;35.03;;;16.95;;
72720;SDS011;60835;50.974;10.322;2023-05-07T06:51:23;32.42;;;17.23;;
72720;SDS011;60835;50.974;10.322;2023-05-07T06:53:56;32.35;;;16.05;;
72720;SDS011;60835;50.974;10.322;2023-05-07T06:56:23;28.35;;;16.17;;
72720;SDS011;60835;50.974;10.322;2023-05-07T06:58:50;29.67;;;14.80;;
72720;SDS011;60835;50.974;10.322;2023-05-07T07:01:16;30.50;;;15.73;;
72720;SDS011;60835;50.974;10.322;2023-05-07T07:03:43;27.85;;;15.30;;
72720;SDS011;60835;50.974;10.322;2023-05-07T07:06:09;29.35;;;14.52;;
72720;SDS011;60835;50.974;10.322;2023-05-07T07:08:36;25.05;;;14.77;;
72720;SDS011;60835;50.974;10.322;2023-05-07T07:11:05;26.95;;;14.90;;
72720;SDS011;60835;50.974;10.322;2023-05-07T07:13:32;28.45;;;14.57;;
72720;SDS011;60835;50.974;10.322;2023-05-07T07:15:59;26.73;;;13.77;;
72720;SDS011;60835;50.974;10.322;2023-05-07T07:18:26;22.17;;;12.75;;
72720;SDS011;60835;50.974;10.322;2023-05-07T07:20:53;22.90;;;12.85;;
72720;SDS011;60835;50.974;10.322;2023-05-07T07:23:20;24.55;;;13.52;;
72720;SDS011;60835;50.974;10.322;2023-05-07T07:25:47;23.40;;;11.95;;
72720;SDS011;60835;50.974;10.322;2023-05-07T07:28:13;19.50;;;11.80;;
72720;SDS011;60835;50.974;10.322;2023-05-07T07:30:43;21.30;;;11.82;;
72720;SDS011;60835;50.974;10.322;2023-05-07T07:33:10;21.85;;;11.95;;
72720;SDS011;60835;50.974;10.322;2023-05-07T07:35:37;21.65;;;12.32;;
72720;SDS011;60835;50.974;10.322;2023-05-07T07:38:04;21.70;;;12.25;;
72720;SDS011;60835;50.974;10.322;2023-05-07T07:40:30;23.73;;;12.30;;
72720;SDS011;60835;50.974;10.322;2023-05-07T07:42:57;19.17;;;11.43;;
72720;SDS011;60835;50.974;10.322;2023-05-07T07:45:24;21.75;;;12.38;;
72720;SDS011;60835;50.974;10.322;2023-05-07T07:47:51;20.35;;;10.55;;
72720;SDS011;60835;50.974;10.322;2023-05-07T07:50:18;23.17;;;11.68;;
72720;SDS011;60835;50.974;10.322;2023-05-07T07:53:05;21.05;;;11.55;;
72720;SDS011;60835;50.974;10.322;2023-05-07T07:55:31;27.20;;;12.20;;
72720;SDS011;60835;50.974;10.322;2023-05-07T07:57:58;25.98;;;14.45;;
72720;SDS011;60835;50.974;10.322;2023-05-07T08:00:25;26.30;;;14.32;;
72720;SDS011;60835;50.974;10.322;2023-05-07T08:02:51;24.25;;;12.88;;
72720;SDS011;60835;50.974;10.322;2023-05-07T08:05:18;23.67;;;13.10;;
72720;SDS011;60835;50.974;10.322;2023-05-07T08:07:45;23.58;;;13.10;;
72720;SDS011;60835;50.974;10.322;2023-05-07T08:10:14;23.95;;;13.75;;
72720;SDS011;60835;50.974;10.322;2023-05-07T08:12:48;28.98;;;14.63;;
72720;SDS011;60835;50.974;10.322;2023-05-07T08:15:16;23.73;;;12.55;;
72720;SDS011;60835;50.974;10.322;2023-05-07T08:17:44;25.38;;;14.50;;
72720;SDS011;60835;50.974;10.322;2023-05-07T08:20:11;31.40;;;14.40;;
72720;SDS011;60835;50.974;10.322;2023-05-07T08:22:38;25.05;;;13.25;;
72720;SDS011;60835;50.974;10.322;2023-05-07T08:25:04;25.27;;;14.13;;
72720;SDS011;60835;50.974;10.322;2023-05-07T08:27:31;29.55;;;15.18;;
72720;SDS011;60835;50.974;10.322;2023-05-07T08:29:58;25.40;;;13.07;;
72720;SDS011;60835;50.974;10.322;2023-05-07T08:32:25;26.50;;;13.45;;
72720;SDS011;60835;50.974;10.322;2023-05-07T08:34:51;26.35;;;13.82;;
72720;SDS011;60835;50.974;10.322;2023-05-07T08:37:18;26.92;;;14.60;;
72720;SDS011;60835;50.974;10.322;2023-05-07T08:39:51;27.13;;;14.38;;
72720;SDS011;60835;50.974;10.322;2023-05-07T08:42:20;24.35;;;13.32;;
72720;SDS011;60835;50.974;10.322;2023-05-07T08:44:50;24.42;;;13.07;;
72720;SDS011;60835;50.974;10.322;2023-05-07T08:47:19;29.60;;;13.70;;
72720;SDS011;60835;50.974;10.322;2023-05-07T08:49:48;24.02;;;13.20;;
72720;SDS011;60835;50.974;10.322;2023-05-07T08:52:16;22.52;;;12.93;;
72720;SDS011;60835;50.974;10.322;2023-05-07T08:54:51;27.52;;;13.90;;
72720;SDS011;60835;50.974;10.322;2023-05-07T08:57:19;25.75;;;13.75;;
72720;SDS011;60835;50.974;10.322;2023-05-07T08:59:46;25.92;;;14.30;;
72720;SDS011;60835;50.974;10.322;2023-05-07T09:02:13;25.20;;;12.73;;
72720;SDS011;60835;50.974;10.322;2023-05-07T09:04:40;25.30;;;14.10;;
72720;SDS011;60835;50.974;10.322;2023-05-07T09:07:07;23.70;;;14.05;;
72720;SDS011;60835;50.974;10.322;2023-05-07T09:09:34;25.02;;;14.40;;
72720;SDS011;60835;50.974;10.322;2023-05-07T09:12:01;24.77;;;13.57;;
72720;SDS011;60835;50.974;10.322;2023-05-07T09:14:29;31.42;;;13.18;;
72720;SDS011;60835;50.974;10.322;2023-05-07T09:16:56;23.08;;;12.85;;
72720;SDS011;60835;50.974;10.322;2023-05-07T09:19:23;26.40;;;13.60;;
72720;SDS011;60835;50.974;10.322;2023-05-07T09:22:03;23.92;;;13.90;;
72720;SDS011;60835;50.974;10.322;2023-05-07T09:24:33;22.45;;;13.30;;
72720;SDS011;60835;50.974;10.322;2023-05-07T09:27:02;25.05;;;13.90;;
72720;SDS011;60835;50.974;10.322;2023-05-07T09:29:29;22.70;;;12.88;;
72720;SDS011;60835;50.974;10.322;2023-05-07T09:32:01;23.05;;;12.82;;
72720;SDS011;60835;50.974;10.322;2023-05-07T09:34:29;21.25;;;12.32;;
72720;SDS011;60835;50.974;10.322;2023-05-07T09:37:00;23.30;;;13.23;;
72720;SDS011;60835;50.974;10.322;2023-05-07T09:39:42;29.13;;;13.93;;
72720;SDS011;60835;50.974;10.322;2023-05-07T09:42:14;23.85;;;13.70;;
72720;SDS011;60835;50.974;10.322;2023-05-07T09:44:44;22.55;;;13.35;;
72720;SDS011;60835;50.974;10.322;2023-05-07T09:47:11;21.55;;;12.75;;
72720;SDS011;60835;50.974;10.322;2023-05-07T09:49:39;23.35;;;12.77;;
72720;SDS011;60835;50.974;10.322;2023-05-07T09:52:08;20.13;;;12.80;;
72720;SDS011;60835;50.974;10.322;2023-05-07T09:54:37;22.42;;;13.18;;
72720;SDS011;60835;50.974;10.322;2023-05-07T09:57:05;22.65;;;13.68;;
72720;SDS011;60835;50.974;10.322;2023-05-07T09:59:33;23.58;;;13.18;;
72720;SDS011;60835;50.974;10.322;2023-05-07T10:02:02;21.02;;;12.60;;
72720;SDS011;60835;50.974;10.322;2023-05-07T10:04:31;24.15;;;13.20;;
72720;SDS011;60835;50.974;10.322;2023-05-07T10:06:58;22.25;;;13.07;;
72720;SDS011;60835;50.974;10.322;2023-05-07T10:09:26;23.40;;;13.98;;
72720;SDS011;60835;50.974;10.322;2023-05-07T10:11:53;24.55;;;13.07;;
72720;SDS011;60835;50.974;10.322;2023-05-07T10:14:21;22.63;;;13.77;;
72720;SDS011;60835;50.974;10.322;2023-05-07T10:16:48;23.42;;;13.27;;
72720;SDS011;60835;50.974;10.322;2023-05-07T10:19:15;22.65;;;13.25;;
72720;SDS011;60835;50.974;10.322;2023-05-07T10:21:54;21.75;;;12.95;;
72720;SDS011;60835;50.974;10.322;2023-05-07T10:24:29;23.65;;;13.00;;
72720;SDS011;60835;50.974;10.322;2023-05-07T10:26:58;23.85;;;14.40;;
72720;SDS011;60835;50.974;10.322;2023-05-07T10:34:37;25.25;;;15.23;;
72720;SDS011;60835;50.974;10.322;2023-05-07T10:37:06;23.42;;;14.02;;
72720;SDS011;60835;50.974;10.322;2023-05-07T10:39:35;25.25;;;14.63;;
72720;SDS011;60835;50.974;10.322;2023-05-07T10:42:12;25.95;;;14.77;;
72720;SDS011;60835;50.974;10.322;2023-05-07T10:44:40;23.20;;;13.63;;
72720;SDS011;60835;50.974;10.322;2023-05-07T10:47:14;22.95;;;13.50;;
72720;SDS011;60835;50.974;10.322;2023-05-07T10:52:18;24.55;;;14.13;;
72720;SDS011;60835;50.974;10.322;2023-05-07T10:54:46;24.27;;;15.23;;
72720;SDS011;60835;50.974;10.322;2023-05-07T10:57:47;25.75;;;15.05;;
72720;SDS011;60835;50.974;10.322;2023-05-07T11:00:48;23.40;;;14.15;;
72720;SDS011;60835;50.974;10.322;2023-05-07T11:05:29;23.02;;;13.45;;
72720;SDS011;60835;50.974;10.322;2023-05-07T11:08:01;22.55;;;13.55;;
72720;SDS011;60835;50.974;10.322;2023-05-07T11:16:18;22.00;;;13.98;;
72720;SDS011;60835;50.974;10.322;2023-05-07T11:18:52;22.55;;;13.82;;
72720;SDS011;60835;50.974;10.322;2023-05-07T11:21:54;24.08;;;13.73;;
72720;SDS011;60835;50.974;10.322;2023-05-07T11:24:14;21.48;;;13.77;;
72720;SDS011;60835;50.974;10.322;2023-05-07T11:29:12;23.50;;;14.23;;
72720;SDS011;60835;50.974;10.322;2023-05-07T11:31:39;22.77;;;13.80;;
72720;SDS011;60835;50.974;10.322;2023-05-07T11:34:06;23.40;;;14.45;;
72720;SDS011;60835;50.974;10.322;2023-05-07T11:36:33;22.08;;;13.95;;
72720;SDS011;60835;50.974;10.322;2023-05-07T11:39:00;22.75;;;13.23;;
72720;SDS011;60835;50.974;10.322;2023-05-07T11:41:36;21.42;;;12.90;;
72720;SDS011;60835;50.974;10.322;2023-05-07T11:44:03;20.77;;;13.32;;
72720;SDS011;60835;50.974;10.322;2023-05-07T11:46:30;21.15;;;12.85;;
72720;SDS011;60835;50.974;10.322;2023-05-07T11:48:57;21.08;;;13.25;;
72720;SDS011;60835;50.974;10.322;2023-05-07T11:51:24;19.85;;;12.77;;
72720;SDS011;60835;50.974;10.322;2023-05-07T11:53:52;20.20;;;12.38;;
72720;SDS011;60835;50.974;10.322;2023-05-07T11:56:19;20.65;;;12.35;;
72720;SDS011;60835;50.974;10.322;2023-05-07T11:58:47;20.10;;;12.60;;
72720;SDS011;60835;50.974;10.322;2023-05-07T12:01:20;16.83;;;12.07;;
72720;SDS011;60835;50.974;10.322;2023-05-07T12:03:48;22.30;;;12.68;;
72720;SDS011;60835;50.974;10.322;2023-05-07T12:06:15;20.55;;;12.73;;
72720;SDS011;60835;50.974;10.322;2023-05-07T12:08:43;18.02;;;12.57;;
72720;SDS011;60835;50.974;10.322;2023-05-07T12:11:14;18.50;;;12.38;;
72720;SDS011;60835;50.974;10.322;2023-05-07T12:13:43;20.48;;;13.13;;
72720;SDS011;60835;50.974;10.322;2023-05-07T12:16:13;17.67;;;12.40;;
72720;SDS011;60835;50.974;10.322;2023-05-07T12:18:40;19.48;;;12.82;;
72720;SDS011;60835;50.974;10.322;2023-05-07T12:21:08;19.35;;;11.68;;
72720;SDS011;60835;50.974;10.322;2023-05-07T12:23:35;17.35;;;11.57;;
72720;SDS011;60835;50.974;10.322;2023-05-07T12:26:03;21.13;;;12.40;;
72720;SDS011;60835;50.974;10.322;2023-05-07T12:28:36;18.88;;;11.68;;
72720;SDS011;60835;50.974;10.322;2023-05-07T12:31:06;16.23;;;11.85;;
72720;SDS011;60835;50.974;10.322;2023-05-07T12:33:34;18.83;;;12.50;;
72720;SDS011;60835;50.974;10.322;2023-05-07T12:36:07;17.17;;;12.40;;
72720;SDS011;60835;50.974;10.322;2023-05-07T12:38:35;19.23;;;12.77;;
72720;SDS011;60835;50.974;10.322;2023-05-07T12:41:03;18.75;;;12.23;;
72720;SDS011;60835;50.974;10.322;2023-05-07T12:43:31;17.40;;;12.25;;
72720;SDS011;60835;50.974;10.322;2023-05-07T12:46:02;20.02;;;11.48;;
72720;SDS011;60835;50.974;10.322;2023-05-07T12:48:31;18.05;;;12.05;;
72720;SDS011;60835;50.974;10.322;2023-05-07T12:51:01;20.45;;;12.65;;
72720;SDS011;60835;50.974;10.322;2023-05-07T12:53:28;20.17;;;12.50;;
72720;SDS011;60835;50.974;10.322;2023-05-07T12:55:57;17.88;;;11.82;;
72720;SDS011;60835;50.974;10.322;2023-05-07T13:01:06;17.77;;;11.98;;
72720;SDS011;60835;50.974;10.322;2023-05-07T13:03:34;16.63;;;11.68;;
72720;SDS011;60835;50.974;10.322;2023-05-07T13:06:04;19.35;;;12.13;;
72720;SDS011;60835;50.974;10.322;2023-05-07T13:08:33;20.67;;;12.38;;
72720;SDS011;60835;50.974;10.322;2023-05-07T13:11:02;18.92;;;12.10;;
72720;SDS011;60835;50.974;10.322;2023-05-07T13:13:31;20.10;;;11.88;;
72720;SDS011;60835;50.974;10.322;2023-05-07T13:16:03;16.67;;;11.57;;
72720;SDS011;60835;50.974;10.322;2023-05-07T13:18:31;16.45;;;11.25;;
72720;SDS011;60835;50.974;10.322;2023-05-07T13:20:59;17.05;;;11.63;;
72720;SDS011;60835;50.974;10.322;2023-05-07T13:23:27;16.85;;;11.77;;
72720;SDS011;60835;50.974;10.322;2023-05-07T13:25:54;16.85;;;12.07;;
72720;SDS011;60835;50.974;10.322;2023-05-07T13:28:25;16.88;;;11.75;;
72720;SDS011;60835;50.974;10.322;2023-05-07T13:30:52;15.77;;;11.35;;
72720;SDS011;60835;50.974;10.322;2023-05-07T13:33:21;15.70;;;10.98;;
72720;SDS011;60835;50.974;10.322;2023-05-07T13:35:47;16.60;;;11.32;;
72720;SDS011;60835;50.974;10.322;2023-05-07T13:38:14;19.10;;;11.52;;
72720;SDS011;60835;50.974;10.322;2023-05-07T13:40:42;15.93;;;10.68;;
72720;SDS011;60835;50.974;10.322;2023-05-07T13:43:09;15.98;;;11.40;;
72720;SDS011;60835;50.974;10.322;2023-05-07T13:45:36;16.52;;;11.57;;
72720;SDS011;60835;50.974;10.322;2023-05-07T13:48:04;16.25;;;11.57;;
72720;SDS011;60835;50.974;10.322;2023-05-07T13:50:30;18.95;;;11.43;;
72720;SDS011;60835;50.974;10.322;2023-05-07T13:52:57;18.15;;;11.48;;
72720;SDS011;60835;50.974;10.322;2023-05-07T13:55:24;18.13;;;11.52;;
72720;SDS011;60835;50.974;10.322;2023-05-07T13:57:58;17.92;;;11.63;;
72720;SDS011;60835;50.974;10.322;2023-05-07T14:00:26;17.67;;;10.82;;
72720;SDS011;60835;50.974;10.322;2023-05-07T14:02:54;16.95;;;11.25;;
72720;SDS011;60835;50.974;10.322;2023-05-07T14:05:22;16.63;;;10.93;;
72720;SDS011;60835;50.974;10.322;2023-05-07T14:07:53;18.05;;;11.52;;
72720;SDS011;60835;50.974;10.322;2023-05-07T14:10:21;17.55;;;10.80;;
72720;SDS011;60835;50.974;10.322;2023-05-07T14:12:47;15.48;;;10.65;;
72720;SDS011;60835;50.974;10.322;2023-05-07T14:15:14;16.08;;;10.40;;
72720;SDS011;60835;50.974;10.322;2023-05-07T14:17:42;15.27;;;11.15;;
72720;SDS011;60835;50.974;10.322;2023-05-07T14:20:09;14.65;;;10.70;;
72720;SDS011;60835;50.974;10.322;2023-05-07T14:22:37;15.45;;;10.43;;
72720;SDS011;60835;50.974;10.322;2023-05-07T14:25:04;14.02;;;10.35;;
72720;SDS011;60835;50.974;10.322;2023-05-07T14:27:32;15.20;;;9.95;;
72720;SDS011;60835;50.974;10.322;2023-05-07T14:29:59;14.65;;;10.07;;
72720;SDS011;60835;50.974;10.322;2023-05-07T14:32:26;13.82;;;9.48;;
72720;SDS011;60835;50.974;10.322;2023-05-07T14:34:53;16.25;;;10.30;;